sensor_id;sensor_type;location;lat;lon;timestamp;temperature;humidity
2867;DHT22;1441;48.886;8.728;2023-05-08T00:02:29;15.20;99.90
2867;DHT22;1441;48.886;8.728;2023-05-08T00:04:55;15.20;99.90
2867;DHT22;1441;48.886;8.728;2023-05-08T00:07:20;15.20;99.90
2867;DHT22;1441;48.886;8.728;2023-05-08T00:09:46;15.20;99.90
2867;DHT22;1441;48.886;8.728;2023-05-08T00:12:12;15.10;99.90
2867;DHT22;1441;48.886;8.728;2023-05-08T00:14:38;15.10;99.90
2867;DHT22;1441;48.886;8.728;2023-05-08T00:17:03;15.20;99.90
2867;DHT22;1441;48.886;8.728;2023-05-08T00:19:29;15.10;99.90
2867;DHT22;1441;48.886;8.728;2023-05-08T00:21:54;15.20;99.90
2867;DHT22;1441;48.886;8.728;2023-05-08T00:24:20;15.30;99.90
2867;DHT22;1441;48.886;8.728;2023-05-08T00:26:45;15.50;99.90
2867;DHT22;1441;48.886;8.728;2023-05-08T00:29:11;15.60;99.90
2867;DHT22;1441;48.886;8.728;2023-05-08T00:31:37;15.60;99.90
2867;DHT22;1441;48.886;8.728;2023-05-08T00:34:02;15.70;99.90
2867;DHT22;1441;48.886;8.728;2023-05-08T00:36:28;15.80;99.90
2867;DHT22;1441;48.886;8.728;2023-05-08T00:38:54;15.70;99.90
2867;DHT22;1441;48.886;8.728;2023-05-08T00:41:19;15.50;99.90
2867;DHT22;1441;48.886;8.728;2023-05-08T00:43:45;15.30;99.90
2867;DHT22;1441;48.886;8.728;2023-05-08T00:46:11;15.20;99.90
2867;DHT22;1441;48.886;8.728;2023-05-08T00:48:38;15.20;99.90
2867;DHT22;1441;48.886;8.728;2023-05-08T00:51:06;15.40;99.90
2867;DHT22;1441;48.886;8.728;2023-05-08T00:53:36;15.50;99.90
2867;DHT22;1441;48.886;8.728;2023-05-08T00:56:04;15.50;99.90
2867;DHT22;1441;48.886;8.728;2023-05-08T00:58:31;15.40;99.90
2867;DHT22;1441;48.886;8.728;2023-05-08T01:00:57;15.30;99.90
2867;DHT22;1441;48.886;8.728;2023-05-08T01:03:24;15.30;99.90
2867;DHT22;1441;48.886;8.728;2023-05-08T01:05:50;15.50;99.90
2867;DHT22;1441;48.886;8.728;2023-05-08T01:08:15;15.50;99.90
2867;DHT22;1441;48.886;8.728;2023-05-08T01:10:53;15.40;99.90
2867;DHT22;1441;48.886;8.728;2023-05-08T01:15:55;15.20;99.90
2867;DHT22;1441;48.886;8.728;2023-05-08T01:18:35;15.10;99.90
2867;DHT22;1441;48.886;8.728;2023-05-08T01:21:21;15.10;99.90
2867;DHT22;1441;48.886;8.728;2023-05-08T01:24:29;15.10;99.90
2867;DHT22;1441;48.886;8.728;2023-05-08T01:27:22;15.00;99.90
2867;DHT22;1441;48.886;8.728;2023-05-08T01:33:01;15.00;99.90
2867;DHT22;1441;48.886;8.728;2023-05-08T01:35:46;15.00;99.90
2867;DHT22;1441;48.886;8.728;2023-05-08T01:38:42;15.00;99.90
2867;DHT22;1441;48.886;8.728;2023-05-08T01:41:15;15.00;99.90
2867;DHT22;1441;48.886;8.728;2023-05-08T01:46:31;15.10;99.90
2867;DHT22;1441;48.886;8.728;2023-05-08T01:49:22;15.00;99.90
2867;DHT22;1441;48.886;8.728;2023-05-08T01:51:56;15.10;99.90
2867;DHT22;1441;48.886;8.728;2023-05-08T01:54:26;15.10;99.90
2867;DHT22;1441;48.886;8.728;2023-05-08T01:56:54;15.10;99.90
2867;DHT22;1441;48.886;8.728;2023-05-08T01:59:22;15.10;99.90
2867;DHT22;1441;48.886;8.728;2023-05-08T02:01:51;15.10;99.90
2867;DHT22;1441;48.886;8.728;2023-05-08T02:04:18;15.00;99.90
2867;DHT22;1441;48.886;8.728;2023-05-08T02:06:44;15.10;99.90
2867;DHT22;1441;48.886;8.728;2023-05-08T02:09:11;15.10;99.90
2867;DHT22;1441;48.886;8.728;2023-05-08T02:11:38;15.00;99.90
2867;DHT22;1441;48.886;8.728;2023-05-08T02:14:06;15.00;99.90
2867;DHT22;1441;48.886;8.728;2023-05-08T02:16:33;15.10;99.90
2867;DHT22;1441;48.886;8.728;2023-05-08T02:19:01;15.10;99.90
2867;DHT22;1441;48.886;8.728;2023-05-08T02:21:27;15.10;99.90
2867;DHT22;1441;48.886;8.728;2023-05-08T02:23:56;15.10;99.90
2867;DHT22;1441;48.886;8.728;2023-05-08T02:26:23;15.20;99.90
2867;DHT22;1441;48.886;8.728;2023-05-08T02:28:52;15.40;99.90
2867;DHT22;1441;48.886;8.728;2023-05-08T02:31:18;15.40;99.90
2867;DHT22;1441;48.886;8.728;2023-05-08T02:33:45;15.30;99.90
2867;DHT22;1441;48.886;8.728;2023-05-08T02:36:15;15.30;99.90
2867;DHT22;1441;48.886;8.728;2023-05-08T02:38:44;15.20;99.90
2867;DHT22;1441;48.886;8.728;2023-05-08T02:41:12;15.10;99.90
2867;DHT22;1441;48.886;8.728;2023-05-08T02:43:40;15.10;99.90
2867;DHT22;1441;48.886;8.728;2023-05-08T02:48:38;15.00;99.90
2867;DHT22;1441;48.886;8.728;2023-05-08T02:51:28;15.10;99.90
2867;DHT22;1441;48.886;8.728;2023-05-08T02:54:09;15.10;99.90
2867;DHT22;1441;48.886;8.728;2023-05-08T02:56:46;15.00;99.90
2867;DHT22;1441;48.886;8.728;2023-05-08T02:59:29;15.00;99.90
2867;DHT22;1441;48.886;8.728;2023-05-08T03:04:40;15.00;99.90
2867;DHT22;1441;48.886;8.728;2023-05-08T03:07:10;15.10;99.90
2867;DHT22;1441;48.886;8.728;2023-05-08T03:09:44;15.10;99.90
2867;DHT22;1441;48.886;8.728;2023-05-08T03:12:17;15.10;99.90
2867;DHT22;1441;48.886;8.728;2023-05-08T03:14:59;15.00;99.90
2867;DHT22;1441;48.886;8.728;2023-05-08T03:17:30;15.00;99.90
2867;DHT22;1441;48.886;8.728;2023-05-08T03:19:59;15.00;99.90
2867;DHT22;1441;48.886;8.728;2023-05-08T03:22:27;15.00;99.90
2867;DHT22;1441;48.886;8.728;2023-05-08T03:24:55;15.00;99.90
2867;DHT22;1441;48.886;8.728;2023-05-08T03:27:24;14.90;99.90
2867;DHT22;1441;48.886;8.728;2023-05-08T03:29:51;15.00;99.90
2867;DHT22;1441;48.886;8.728;2023-05-08T03:32:18;15.00;99.90
2867;DHT22;1441;48.886;8.728;2023-05-08T03:34:44;15.00;99.90
2867;DHT22;1441;48.886;8.728;2023-05-08T03:37:10;15.00;99.90
2867;DHT22;1441;48.886;8.728;2023-05-08T03:39:36;15.00;99.90
2867;DHT22;1441;48.886;8.728;2023-05-08T03:42:02;15.00;99.90
2867;DHT22;1441;48.886;8.728;2023-05-08T03:44:28;15.20;99.90
2867;DHT22;1441;48.886;8.728;2023-05-08T03:46:56;15.30;99.90
2867;DHT22;1441;48.886;8.728;2023-05-08T03:49:24;15.20;99.90
2867;DHT22;1441;48.886;8.728;2023-05-08T03:51:52;15.20;99.90
2867;DHT22;1441;48.886;8.728;2023-05-08T03:54:18;15.10;99.90
2867;DHT22;1441;48.886;8.728;2023-05-08T03:56:44;15.00;99.90
2867;DHT22;1441;48.886;8.728;2023-05-08T04:00:06;15.00;99.90
2867;DHT22;1441;48.886;8.728;2023-05-08T04:04:44;15.00;99.90
2867;DHT22;1441;48.886;8.728;2023-05-08T04:07:27;15.10;99.90
2867;DHT22;1441;48.886;8.728;2023-05-08T04:10:08;15.10;99.90
2867;DHT22;1441;48.886;8.728;2023-05-08T04:12:56;15.10;99.90
2867;DHT22;1441;48.886;8.728;2023-05-08T04:15:28;15.00;99.90
2867;DHT22;1441;48.886;8.728;2023-05-08T04:17:59;15.00;99.90
2867;DHT22;1441;48.886;8.728;2023-05-08T04:20:28;15.10;99.90
2867;DHT22;1441;48.886;8.728;2023-05-08T04:22:54;15.10;99.90
2867;DHT22;1441;48.886;8.728;2023-05-08T04:25:22;15.10;99.90
2867;DHT22;1441;48.886;8.728;2023-05-08T04:27:48;15.40;99.90
2867;DHT22;1441;48.886;8.728;2023-05-08T04:30:16;15.40;99.90
2867;DHT22;1441;48.886;8.728;2023-05-08T04:32:42;15.50;99.90
2867;DHT22;1441;48.886;8.728;2023-05-08T04:35:09;15.60;99.90
2867;DHT22;1441;48.886;8.728;2023-05-08T04:37:34;15.60;99.90
2867;DHT22;1441;48.886;8.728;2023-05-08T04:40:00;15.70;99.90
2867;DHT22;1441;48.886;8.728;2023-05-08T04:42:26;15.50;99.90
2867;DHT22;1441;48.886;8.728;2023-05-08T04:44:52;15.30;99.90
2867;DHT22;1441;48.886;8.728;2023-05-08T04:47:18;15.20;99.90
2867;DHT22;1441;48.886;8.728;2023-05-08T04:49:45;15.30;99.90
2867;DHT22;1441;48.886;8.728;2023-05-08T04:52:11;15.40;99.90
2867;DHT22;1441;48.886;8.728;2023-05-08T04:54:36;15.30;99.90
2867;DHT22;1441;48.886;8.728;2023-05-08T04:57:02;15.30;99.90
2867;DHT22;1441;48.886;8.728;2023-05-08T04:59:28;15.20;99.90
2867;DHT22;1441;48.886;8.728;2023-05-08T05:01:55;15.20;99.90
2867;DHT22;1441;48.886;8.728;2023-05-08T05:04:21;15.20;99.90
2867;DHT22;1441;48.886;8.728;2023-05-08T05:06:47;15.30;99.90
2867;DHT22;1441;48.886;8.728;2023-05-08T05:09:12;15.30;99.90
2867;DHT22;1441;48.886;8.728;2023-05-08T05:11:38;15.30;99.90
2867;DHT22;1441;48.886;8.728;2023-05-08T05:14:04;15.20;99.90
2867;DHT22;1441;48.886;8.728;2023-05-08T05:16:30;15.20;99.90
2867;DHT22;1441;48.886;8.728;2023-05-08T05:18:56;15.20;99.90
2867;DHT22;1441;48.886;8.728;2023-05-08T05:21:21;15.20;99.90
2867;DHT22;1441;48.886;8.728;2023-05-08T05:23:47;15.20;99.90
2867;DHT22;1441;48.886;8.728;2023-05-08T05:26:12;15.20;99.90
2867;DHT22;1441;48.886;8.728;2023-05-08T05:28:38;15.30;99.90
2867;DHT22;1441;48.886;8.728;2023-05-08T05:31:03;15.30;99.90
2867;DHT22;1441;48.886;8.728;2023-05-08T05:33:29;15.30;99.90
2867;DHT22;1441;48.886;8.728;2023-05-08T05:35:55;15.30;99.90
2867;DHT22;1441;48.886;8.728;2023-05-08T05:38:21;15.30;99.90
2867;DHT22;1441;48.886;8.728;2023-05-08T05:40:47;15.30;99.90
2867;DHT22;1441;48.886;8.728;2023-05-08T05:43:12;15.30;99.90
2867;DHT22;1441;48.886;8.728;2023-05-08T05:45:38;15.30;99.90
2867;DHT22;1441;48.886;8.728;2023-05-08T05:48:04;15.30;99.90
2867;DHT22;1441;48.886;8.728;2023-05-08T05:50:30;15.50;99.90
2867;DHT22;1441;48.886;8.728;2023-05-08T05:52:56;15.60;99.90
2867;DHT22;1441;48.886;8.728;2023-05-08T05:55:22;15.60;99.90
2867;DHT22;1441;48.886;8.728;2023-05-08T05:57:48;15.60;99.90
2867;DHT22;1441;48.886;8.728;2023-05-08T06:00:14;15.70;99.90
2867;DHT22;1441;48.886;8.728;2023-05-08T06:02:41;15.70;99.90
2867;DHT22;1441;48.886;8.728;2023-05-08T06:05:07;15.80;99.90
2867;DHT22;1441;48.886;8.728;2023-05-08T06:07:33;15.90;99.90
2867;DHT22;1441;48.886;8.728;2023-05-08T06:09:59;15.90;99.90
2867;DHT22;1441;48.886;8.728;2023-05-08T06:12:25;15.80;99.90
2867;DHT22;1441;48.886;8.728;2023-05-08T06:14:51;15.80;99.90
2867;DHT22;1441;48.886;8.728;2023-05-08T06:17:22;15.80;99.90
2867;DHT22;1441;48.886;8.728;2023-05-08T06:19:47;15.80;99.90
2867;DHT22;1441;48.886;8.728;2023-05-08T06:22:19;16.00;99.90
2867;DHT22;1441;48.886;8.728;2023-05-08T06:24:48;16.00;99.90
2867;DHT22;1441;48.886;8.728;2023-05-08T06:27:14;15.80;99.90
2867;DHT22;1441;48.886;8.728;2023-05-08T06:29:39;15.70;99.90
2867;DHT22;1441;48.886;8.728;2023-05-08T06:32:05;15.70;99.90
2867;DHT22;1441;48.886;8.728;2023-05-08T06:34:31;15.70;99.90
2867;DHT22;1441;48.886;8.728;2023-05-08T06:37:00;15.70;99.90
2867;DHT22;1441;48.886;8.728;2023-05-08T06:39:25;15.60;99.90
2867;DHT22;1441;48.886;8.728;2023-05-08T06:42:00;15.60;99.90
2867;DHT22;1441;48.886;8.728;2023-05-08T06:44:25;15.70;99.90
2867;DHT22;1441;48.886;8.728;2023-05-08T06:46:51;15.80;99.90
2867;DHT22;1441;48.886;8.728;2023-05-08T06:49:23;15.80;99.90
2867;DHT22;1441;48.886;8.728;2023-05-08T06:51:48;15.80;99.90
2867;DHT22;1441;48.886;8.728;2023-05-08T06:54:14;15.80;99.90
2867;DHT22;1441;48.886;8.728;2023-05-08T06:56:49;15.80;99.90
2867;DHT22;1441;48.886;8.728;2023-05-08T06:59:14;15.90;99.90
2867;DHT22;1441;48.886;8.728;2023-05-08T07:01:40;15.90;99.90
2867;DHT22;1441;48.886;8.728;2023-05-08T07:04:06;15.80;99.90
2867;DHT22;1441;48.886;8.728;2023-05-08T07:06:31;15.80;99.90
2867;DHT22;1441;48.886;8.728;2023-05-08T07:08:57;15.80;99.90
2867;DHT22;1441;48.886;8.728;2023-05-08T07:11:22;15.70;99.90
2867;DHT22;1441;48.886;8.728;2023-05-08T07:13:48;15.70;99.90
2867;DHT22;1441;48.886;8.728;2023-05-08T07:16:14;15.70;99.90
2867;DHT22;1441;48.886;8.728;2023-05-08T07:18:41;15.70;99.90
2867;DHT22;1441;48.886;8.728;2023-05-08T07:21:07;15.70;99.90
2867;DHT22;1441;48.886;8.728;2023-05-08T07:23:33;15.70;99.90
2867;DHT22;1441;48.886;8.728;2023-05-08T07:25:58;15.70;99.90
2867;DHT22;1441;48.886;8.728;2023-05-08T07:28:24;15.60;99.90
2867;DHT22;1441;48.886;8.728;2023-05-08T07:30:49;15.60;99.90
2867;DHT22;1441;48.886;8.728;2023-05-08T07:33:16;15.70;99.90
2867;DHT22;1441;48.886;8.728;2023-05-08T07:35:41;15.70;99.90
2867;DHT22;1441;48.886;8.728;2023-05-08T07:38:07;15.70;99.90
2867;DHT22;1441;48.886;8.728;2023-05-08T07:40:33;15.80;99.90
2867;DHT22;1441;48.886;8.728;2023-05-08T07:42:59;15.80;99.90
2867;DHT22;1441;48.886;8.728;2023-05-08T07:45:25;15.90;99.90
2867;DHT22;1441;48.886;8.728;2023-05-08T07:47:55;15.90;99.90
2867;DHT22;1441;48.886;8.728;2023-05-08T07:50:22;15.90;99.90
2867;DHT22;1441;48.886;8.728;2023-05-08T07:52:48;15.90;99.90
2867;DHT22;1441;48.886;8.728;2023-05-08T07:55:13;15.90;99.90
2867;DHT22;1441;48.886;8.728;2023-05-08T07:57:40;16.00;99.90
2867;DHT22;1441;48.886;8.728;2023-05-08T08:00:11;16.10;99.90
2867;DHT22;1441;48.886;8.728;2023-05-08T08:02:38;16.20;99.90
2867;DHT22;1441;48.886;8.728;2023-05-08T08:05:07;16.20;99.90
2867;DHT22;1441;48.886;8.728;2023-05-08T08:07:33;16.30;99.90
2867;DHT22;1441;48.886;8.728;2023-05-08T08:09:59;16.40;99.90
2867;DHT22;1441;48.886;8.728;2023-05-08T08:12:26;16.40;99.90
2867;DHT22;1441;48.886;8.728;2023-05-08T08:14:51;16.40;99.90
2867;DHT22;1441;48.886;8.728;2023-05-08T08:17:17;16.50;99.90
2867;DHT22;1441;48.886;8.728;2023-05-08T08:19:43;16.50;99.90
2867;DHT22;1441;48.886;8.728;2023-05-08T08:22:08;16.40;99.90
2867;DHT22;1441;48.886;8.728;2023-05-08T08:24:34;16.60;99.90
2867;DHT22;1441;48.886;8.728;2023-05-08T08:26:59;16.80;99.90
2867;DHT22;1441;48.886;8.728;2023-05-08T08:29:25;16.80;99.90
2867;DHT22;1441;48.886;8.728;2023-05-08T08:31:51;16.80;99.90
2867;DHT22;1441;48.886;8.728;2023-05-08T08:34:16;16.70;99.90
2867;DHT22;1441;48.886;8.728;2023-05-08T08:36:42;16.60;99.90
2867;DHT22;1441;48.886;8.728;2023-05-08T08:39:08;16.50;99.90
2867;DHT22;1441;48.886;8.728;2023-05-08T08:41:33;16.70;99.90
2867;DHT22;1441;48.886;8.728;2023-05-08T08:43:59;16.60;99.90
2867;DHT22;1441;48.886;8.728;2023-05-08T08:46:26;16.50;99.90
2867;DHT22;1441;48.886;8.728;2023-05-08T08:48:54;16.40;99.90
2867;DHT22;1441;48.886;8.728;2023-05-08T08:51:26;16.40;99.90
2867;DHT22;1441;48.886;8.728;2023-05-08T08:56:30;16.40;99.90
2867;DHT22;1441;48.886;8.728;2023-05-08T08:58:57;16.40;99.90
2867;DHT22;1441;48.886;8.728;2023-05-08T09:01:25;16.30;99.90
2867;DHT22;1441;48.886;8.728;2023-05-08T09:03:55;16.30;99.90
2867;DHT22;1441;48.886;8.728;2023-05-08T09:06:21;16.40;99.90
2867;DHT22;1441;48.886;8.728;2023-05-08T09:08:47;16.40;99.90
2867;DHT22;1441;48.886;8.728;2023-05-08T09:11:13;16.40;99.90
2867;DHT22;1441;48.886;8.728;2023-05-08T09:13:39;16.40;99.90
2867;DHT22;1441;48.886;8.728;2023-05-08T09:16:05;16.40;99.90
2867;DHT22;1441;48.886;8.728;2023-05-08T09:18:30;16.50;99.90
2867;DHT22;1441;48.886;8.728;2023-05-08T09:20:56;16.50;99.90
2867;DHT22;1441;48.886;8.728;2023-05-08T09:23:21;16.40;99.90
2867;DHT22;1441;48.886;8.728;2023-05-08T09:25:48;16.40;99.90
2867;DHT22;1441;48.886;8.728;2023-05-08T09:28:22;16.40;99.90
2867;DHT22;1441;48.886;8.728;2023-05-08T09:30:56;16.40;99.90
2867;DHT22;1441;48.886;8.728;2023-05-08T09:33:23;16.40;99.90
2867;DHT22;1441;48.886;8.728;2023-05-08T09:35:50;16.40;99.90
2867;DHT22;1441;48.886;8.728;2023-05-08T09:38:38;16.40;99.90
2867;DHT22;1441;48.886;8.728;2023-05-08T09:41:10;16.30;99.90
2867;DHT22;1441;48.886;8.728;2023-05-08T09:43:37;16.30;99.90
2867;DHT22;1441;48.886;8.728;2023-05-08T09:46:19;16.40;99.90
2867;DHT22;1441;48.886;8.728;2023-05-08T09:48:49;16.40;99.90
2867;DHT22;1441;48.886;8.728;2023-05-08T09:51:15;16.50;99.90
2867;DHT22;1441;48.886;8.728;2023-05-08T09:53:41;16.70;99.90
2867;DHT22;1441;48.886;8.728;2023-05-08T09:56:07;16.90;99.90
2867;DHT22;1441;48.886;8.728;2023-05-08T09:58:43;16.90;99.90
2867;DHT22;1441;48.886;8.728;2023-05-08T10:01:34;17.00;99.90
2867;DHT22;1441;48.886;8.728;2023-05-08T10:04:00;16.90;99.90
2867;DHT22;1441;48.886;8.728;2023-05-08T10:06:27;17.00;99.90
2867;DHT22;1441;48.886;8.728;2023-05-08T10:09:10;17.00;99.90
2867;DHT22;1441;48.886;8.728;2023-05-08T10:11:37;17.10;99.90
2867;DHT22;1441;48.886;8.728;2023-05-08T10:14:03;17.10;99.90
2867;DHT22;1441;48.886;8.728;2023-05-08T10:16:29;17.30;99.90
2867;DHT22;1441;48.886;8.728;2023-05-08T10:18:59;17.30;99.90
2867;DHT22;1441;48.886;8.728;2023-05-08T10:21:34;17.40;99.90
2867;DHT22;1441;48.886;8.728;2023-05-08T10:24:04;17.50;99.90
2867;DHT22;1441;48.886;8.728;2023-05-08T10:26:30;17.50;99.90
2867;DHT22;1441;48.886;8.728;2023-05-08T10:29:06;17.70;99.90
2867;DHT22;1441;48.886;8.728;2023-05-08T10:31:34;17.70;99.90
2867;DHT22;1441;48.886;8.728;2023-05-08T10:34:01;18.20;99.90
2867;DHT22;1441;48.886;8.728;2023-05-08T10:36:27;18.60;99.90
2867;DHT22;1441;48.886;8.728;2023-05-08T10:38:57;18.70;99.90
2867;DHT22;1441;48.886;8.728;2023-05-08T10:41:23;18.90;99.90
2867;DHT22;1441;48.886;8.728;2023-05-08T10:43:49;18.80;99.90
2867;DHT22;1441;48.886;8.728;2023-05-08T10:46:41;18.70;99.90
2867;DHT22;1441;48.886;8.728;2023-05-08T10:49:17;18.50;99.90
2867;DHT22;1441;48.886;8.728;2023-05-08T10:52:00;18.50;99.90
2867;DHT22;1441;48.886;8.728;2023-05-08T10:54:46;18.90;99.90
2867;DHT22;1441;48.886;8.728;2023-05-08T10:57:14;19.20;99.90
2867;DHT22;1441;48.886;8.728;2023-05-08T10:59:44;19.10;99.90
2867;DHT22;1441;48.886;8.728;2023-05-08T11:02:11;19.10;99.90
2867;DHT22;1441;48.886;8.728;2023-05-08T11:04:36;19.10;99.90
2867;DHT22;1441;48.886;8.728;2023-05-08T11:07:02;18.90;99.90
2867;DHT22;1441;48.886;8.728;2023-05-08T11:09:49;19.00;99.90
2867;DHT22;1441;48.886;8.728;2023-05-08T11:12:20;19.10;99.90
2867;DHT22;1441;48.886;8.728;2023-05-08T11:15:13;19.00;99.90
2867;DHT22;1441;48.886;8.728;2023-05-08T11:17:39;18.80;99.90
2867;DHT22;1441;48.886;8.728;2023-05-08T11:20:10;18.90;99.90
2867;DHT22;1441;48.886;8.728;2023-05-08T11:22:36;18.80;99.90
2867;DHT22;1441;48.886;8.728;2023-05-08T11:25:08;18.70;99.90
2867;DHT22;1441;48.886;8.728;2023-05-08T11:35:55;19.20;99.90
2867;DHT22;1441;48.886;8.728;2023-05-08T11:38:33;19.70;99.90
2867;DHT22;1441;48.886;8.728;2023-05-08T11:41:22;20.00;99.90
2867;DHT22;1441;48.886;8.728;2023-05-08T11:46:49;20.80;96.70
2867;DHT22;1441;48.886;8.728;2023-05-08T11:49:16;20.90;94.30
2867;DHT22;1441;48.886;8.728;2023-05-08T11:51:45;20.50;97.00
2867;DHT22;1441;48.886;8.728;2023-05-08T11:54:18;20.20;95.40
2867;DHT22;1441;48.886;8.728;2023-05-08T11:56:47;20.20;93.70
2867;DHT22;1441;48.886;8.728;2023-05-08T11:59:14;20.20;94.40
2867;DHT22;1441;48.886;8.728;2023-05-08T12:01:40;19.80;97.90
2867;DHT22;1441;48.886;8.728;2023-05-08T12:04:10;19.90;96.10
2867;DHT22;1441;48.886;8.728;2023-05-08T12:06:38;19.70;96.90
2867;DHT22;1441;48.886;8.728;2023-05-08T12:09:17;19.90;97.10
2867;DHT22;1441;48.886;8.728;2023-05-08T12:11:44;20.00;95.50
2867;DHT22;1441;48.886;8.728;2023-05-08T12:14:16;19.80;96.70
2867;DHT22;1441;48.886;8.728;2023-05-08T12:16:42;19.70;96.50
2867;DHT22;1441;48.886;8.728;2023-05-08T12:19:12;19.70;95.40
2867;DHT22;1441;48.886;8.728;2023-05-08T12:21:38;19.80;95.60
2867;DHT22;1441;48.886;8.728;2023-05-08T12:24:10;19.70;97.70
2867;DHT22;1441;48.886;8.728;2023-05-08T12:26:36;19.70;97.80
2867;DHT22;1441;48.886;8.728;2023-05-08T12:29:06;19.70;98.70
2867;DHT22;1441;48.886;8.728;2023-05-08T12:31:34;19.70;96.90
2867;DHT22;1441;48.886;8.728;2023-05-08T12:34:05;19.90;95.80
2867;DHT22;1441;48.886;8.728;2023-05-08T12:36:34;19.80;96.50
2867;DHT22;1441;48.886;8.728;2023-05-08T12:39:15;19.90;96.10
2867;DHT22;1441;48.886;8.728;2023-05-08T12:41:51;19.70;96.50
2867;DHT22;1441;48.886;8.728;2023-05-08T12:44:22;19.80;95.80
2867;DHT22;1441;48.886;8.728;2023-05-08T12:46:55;19.80;95.80
2867;DHT22;1441;48.886;8.728;2023-05-08T12:49:31;19.80;95.20
2867;DHT22;1441;48.886;8.728;2023-05-08T12:52:05;19.90;96.10
2867;DHT22;1441;48.886;8.728;2023-05-08T12:54:46;19.90;95.80
2867;DHT22;1441;48.886;8.728;2023-05-08T12:57:13;19.80;98.00
2867;DHT22;1441;48.886;8.728;2023-05-08T12:59:39;19.80;96.10
2867;DHT22;1441;48.886;8.728;2023-05-08T13:02:16;19.90;95.50
2867;DHT22;1441;48.886;8.728;2023-05-08T13:04:43;19.90;95.20
2867;DHT22;1441;48.886;8.728;2023-05-08T13:07:08;19.80;95.90
2867;DHT22;1441;48.886;8.728;2023-05-08T13:09:34;19.90;95.60
2867;DHT22;1441;48.886;8.728;2023-05-08T13:12:01;19.90;95.00
2867;DHT22;1441;48.886;8.728;2023-05-08T13:14:26;19.70;94.30
2867;DHT22;1441;48.886;8.728;2023-05-08T13:16:52;19.60;95.50
2867;DHT22;1441;48.886;8.728;2023-05-08T13:19:17;19.60;98.10
2867;DHT22;1441;48.886;8.728;2023-05-08T13:21:44;19.50;99.00
2867;DHT22;1441;48.886;8.728;2023-05-08T13:24:12;19.30;99.50
2867;DHT22;1441;48.886;8.728;2023-05-08T13:26:38;19.00;99.90
2867;DHT22;1441;48.886;8.728;2023-05-08T13:29:03;18.70;99.90
2867;DHT22;1441;48.886;8.728;2023-05-08T13:31:29;18.40;99.90
2867;DHT22;1441;48.886;8.728;2023-05-08T13:33:55;18.20;99.90
2867;DHT22;1441;48.886;8.728;2023-05-08T13:36:20;18.00;99.90
2867;DHT22;1441;48.886;8.728;2023-05-08T13:38:46;17.70;99.90
2867;DHT22;1441;48.886;8.728;2023-05-08T13:41:12;17.40;99.90
2867;DHT22;1441;48.886;8.728;2023-05-08T13:43:37;17.30;99.90
2867;DHT22;1441;48.886;8.728;2023-05-08T13:46:03;17.30;99.90
2867;DHT22;1441;48.886;8.728;2023-05-08T13:48:28;17.40;99.90
2867;DHT22;1441;48.886;8.728;2023-05-08T13:50:54;17.30;99.90
2867;DHT22;1441;48.886;8.728;2023-05-08T13:53:19;17.40;99.90
2867;DHT22;1441;48.886;8.728;2023-05-08T13:55:45;17.40;99.90
2867;DHT22;1441;48.886;8.728;2023-05-08T13:58:10;17.50;99.90
2867;DHT22;1441;48.886;8.728;2023-05-08T14:00:36;17.40;99.90
2867;DHT22;1441;48.886;8.728;2023-05-08T14:03:02;17.40;99.90
2867;DHT22;1441;48.886;8.728;2023-05-08T14:05:27;17.40;99.90
2867;DHT22;1441;48.886;8.728;2023-05-08T14:07:53;17.50;99.90
2867;DHT22;1441;48.886;8.728;2023-05-08T14:10:19;17.50;99.90
2867;DHT22;1441;48.886;8.728;2023-05-08T14:12:44;17.50;99.90
2867;DHT22;1441;48.886;8.728;2023-05-08T14:15:11;17.60;99.90
2867;DHT22;1441;48.886;8.728;2023-05-08T14:17:36;17.60;99.90
2867;DHT22;1441;48.886;8.728;2023-05-08T14:20:02;17.60;99.90
2867;DHT22;1441;48.886;8.728;2023-05-08T14:22:28;17.60;99.90
2867;DHT22;1441;48.886;8.728;2023-05-08T14:24:53;17.60;99.90
2867;DHT22;1441;48.886;8.728;2023-05-08T14:27:19;17.70;99.90
2867;DHT22;1441;48.886;8.728;2023-05-08T14:29:45;17.80;99.90
2867;DHT22;1441;48.886;8.728;2023-05-08T14:32:10;17.80;99.90
2867;DHT22;1441;48.886;8.728;2023-05-08T14:34:36;17.70;99.90
2867;DHT22;1441;48.886;8.728;2023-05-08T14:37:02;17.70;99.90
2867;DHT22;1441;48.886;8.728;2023-05-08T14:39:28;17.70;99.90
2867;DHT22;1441;48.886;8.728;2023-05-08T14:41:53;17.70;99.90
2867;DHT22;1441;48.886;8.728;2023-05-08T14:44:19;17.70;99.90
2867;DHT22;1441;48.886;8.728;2023-05-08T14:46:45;17.60;99.90
2867;DHT22;1441;48.886;8.728;2023-05-08T14:49:10;17.50;99.90
2867;DHT22;1441;48.886;8.728;2023-05-08T14:51:36;17.30;99.90
2867;DHT22;1441;48.886;8.728;2023-05-08T14:54:01;17.40;99.90
2867;DHT22;1441;48.886;8.728;2023-05-08T14:56:27;17.40;99.90
2867;DHT22;1441;48.886;8.728;2023-05-08T14:58:53;17.40;99.90
2867;DHT22;1441;48.886;8.728;2023-05-08T15:01:20;17.50;99.90
2867;DHT22;1441;48.886;8.728;2023-05-08T15:03:47;17.70;99.90
2867;DHT22;1441;48.886;8.728;2023-05-08T15:06:20;17.70;99.90
2867;DHT22;1441;48.886;8.728;2023-05-08T15:08:46;17.60;99.90
2867;DHT22;1441;48.886;8.728;2023-05-08T15:11:12;17.60;99.90
2867;DHT22;1441;48.886;8.728;2023-05-08T15:13:38;17.60;99.90
2867;DHT22;1441;48.886;8.728;2023-05-08T15:16:04;17.70;99.90
2867;DHT22;1441;48.886;8.728;2023-05-08T15:18:29;17.70;99.90
2867;DHT22;1441;48.886;8.728;2023-05-08T15:20:55;17.70;99.90
2867;DHT22;1441;48.886;8.728;2023-05-08T15:23:22;17.70;99.90
2867;DHT22;1441;48.886;8.728;2023-05-08T15:25:47;17.70;99.90
2867;DHT22;1441;48.886;8.728;2023-05-08T15:28:13;17.80;99.90
2867;DHT22;1441;48.886;8.728;2023-05-08T15:30:39;17.80;99.90
2867;DHT22;1441;48.886;8.728;2023-05-08T15:33:05;17.70;99.90
2867;DHT22;1441;48.886;8.728;2023-05-08T15:35:30;17.70;99.90
2867;DHT22;1441;48.886;8.728;2023-05-08T15:37:56;17.80;99.90
2867;DHT22;1441;48.886;8.728;2023-05-08T15:40:21;17.90;99.90
2867;DHT22;1441;48.886;8.728;2023-05-08T15:42:47;17.90;99.90
2867;DHT22;1441;48.886;8.728;2023-05-08T15:45:12;18.00;99.90
2867;DHT22;1441;48.886;8.728;2023-05-08T15:47:39;17.90;99.90
2867;DHT22;1441;48.886;8.728;2023-05-08T15:50:05;17.80;99.90
2867;DHT22;1441;48.886;8.728;2023-05-08T15:52:30;17.80;99.90
2867;DHT22;1441;48.886;8.728;2023-05-08T15:54:56;17.70;99.90
2867;DHT22;1441;48.886;8.728;2023-05-08T15:57:21;17.70;99.90
2867;DHT22;1441;48.886;8.728;2023-05-08T15:59:47;17.60;99.90
2867;DHT22;1441;48.886;8.728;2023-05-08T16:02:13;17.50;99.90
2867;DHT22;1441;48.886;8.728;2023-05-08T16:04:38;17.50;99.90
2867;DHT22;1441;48.886;8.728;2023-05-08T16:07:04;17.60;99.90
2867;DHT22;1441;48.886;8.728;2023-05-08T16:09:29;17.70;99.90
2867;DHT22;1441;48.886;8.728;2023-05-08T16:11:55;17.70;99.90
2867;DHT22;1441;48.886;8.728;2023-05-08T16:14:20;17.70;99.90
2867;DHT22;1441;48.886;8.728;2023-05-08T16:16:46;17.80;99.90
2867;DHT22;1441;48.886;8.728;2023-05-08T16:19:11;17.80;99.90
2867;DHT22;1441;48.886;8.728;2023-05-08T16:21:37;17.90;99.90
2867;DHT22;1441;48.886;8.728;2023-05-08T16:24:03;17.90;99.90
2867;DHT22;1441;48.886;8.728;2023-05-08T16:26:28;17.90;99.90
2867;DHT22;1441;48.886;8.728;2023-05-08T16:28:54;17.90;99.90
2867;DHT22;1441;48.886;8.728;2023-05-08T16:31:20;17.90;99.90
2867;DHT22;1441;48.886;8.728;2023-05-08T16:33:45;17.90;99.90
2867;DHT22;1441;48.886;8.728;2023-05-08T16:36:11;17.90;99.90
2867;DHT22;1441;48.886;8.728;2023-05-08T16:38:36;18.00;99.90
2867;DHT22;1441;48.886;8.728;2023-05-08T16:41:03;18.10;99.90